Cloudcroft, New Mexico
Current Conditions -  °F | °C
As of 9:55 AM on Saturday 22 Nov 2014 (Local Time) from KALM Reporting Station
Clear Clear  
Wind Chill: 55°   Ceiling: Unl
Heat Index: 55°   Visibility: 10mi
Dew Point: 25°   Wind: 0mph
Humidity: 31%   Direction: NA
Pressure: 30.07"   Gusts: NA
Location:  32.96°N, 105.74°W
Report Text: KALM 221655Z AUTO 00000KT 10SM CLR 13/M04 A3007 RMK AO2 LTG DSNT E
Loading
Personal Weather Stations






























Interactive Weather Map New forecast layout! Learn more

10-Day Weather Forecast

Advertisements
Track Severe Weather on mobile